Terminal Aerodrome Forecast
Issued by NWS Sterling, VA

Home | Current Version | Previous Version | Text Only | Print | Product List | Glossary On
Versions: 1 2 3 4 5 6 7 8 9 10 11 12 13 14 15 16 17 18 19 20 21 22 23 24 25 26
000
FTUS41 KLWX 050232 AAA
TAFBWI
TAF AMD
KBWI 050232Z 0503/0606 VRB03KT P6SM BKN025
     FM050500 VRB03KT 5SM BR BKN025
     FM050900 VRB03KT 2SM BR SCT008 BKN015
     FM051300 VRB03KT P6SM SCT200
     FM052100 14004KT P6SM SCT050
     FM060500 VRB03KT P6SM BKN050=

USA.gov is the U.S. government's official web portal to all federal, state and local government web resources and services.